sensor_id;sensor_type;location;lat;lon;timestamp;pressure;altitude;pressure_sealevel;temperature;humidity
5879;BME280;2965;42.640;23.370;2022-07-23T00:00:45;94797.09;;;20.45;nan
5879;BME280;2965;42.640;23.370;2022-07-23T00:03:11;94798.84;;;20.51;nan
5879;BME280;2965;42.640;23.370;2022-07-23T00:05:37;94799.53;;;20.46;nan
5879;BME280;2965;42.640;23.370;2022-07-23T00:08:03;94798.25;;;20.49;nan
5879;BME280;2965;42.640;23.370;2022-07-23T00:10:28;94805.06;;;20.45;nan
5879;BME280;2965;42.640;23.370;2022-07-23T00:12:54;94793.88;;;20.42;nan
5879;BME280;2965;42.640;23.370;2022-07-23T00:15:19;94805.47;;;20.36;nan
5879;BME280;2965;42.640;23.370;2022-07-23T00:17:45;94809.13;;;20.35;nan
5879;BME280;2965;42.640;23.370;2022-07-23T00:20:10;94803.41;;;20.27;nan
5879;BME280;2965;42.640;23.370;2022-07-23T00:22:36;94800.91;;;20.20;nan
5879;BME280;2965;42.640;23.370;2022-07-23T00:25:01;94808.28;;;20.18;nan
5879;BME280;2965;42.640;23.370;2022-07-23T00:27:27;94805.56;;;20.01;nan
5879;BME280;2965;42.640;23.370;2022-07-23T00:29:52;94810.69;;;19.79;nan
5879;BME280;2965;42.640;23.370;2022-07-23T00:32:18;94805.69;;;19.59;nan
5879;BME280;2965;42.640;23.370;2022-07-23T00:34:43;94809.63;;;19.45;nan
5879;BME280;2965;42.640;23.370;2022-07-23T00:37:08;94818.28;;;19.17;nan
5879;BME280;2965;42.640;23.370;2022-07-23T00:39:34;94820.22;;;19.10;nan
5879;BME280;2965;42.640;23.370;2022-07-23T00:41:59;94818.50;;;19.04;nan
5879;BME280;2965;42.640;23.370;2022-07-23T00:44:27;94815.81;;;18.92;nan
5879;BME280;2965;42.640;23.370;2022-07-23T00:46:57;94818.59;;;19.09;nan
5879;BME280;2965;42.640;23.370;2022-07-23T00:49:28;94812.16;;;19.16;nan
5879;BME280;2965;42.640;23.370;2022-07-23T00:51:54;94810.56;;;19.27;nan
5879;BME280;2965;42.640;23.370;2022-07-23T00:54:22;94813.44;;;19.37;nan
5879;BME280;2965;42.640;23.370;2022-07-23T00:56:48;94815.03;;;19.38;nan
5879;BME280;2965;42.640;23.370;2022-07-23T00:59:14;94814.94;;;19.45;nan
5879;BME280;2965;42.640;23.370;2022-07-23T01:01:40;94806.53;;;19.48;nan
5879;BME280;2965;42.640;23.370;2022-07-23T01:04:06;94804.69;;;19.49;nan
5879;BME280;2965;42.640;23.370;2022-07-23T01:06:36;94810.91;;;19.42;nan
5879;BME280;2965;42.640;23.370;2022-07-23T01:09:03;94798.22;;;19.45;nan
5879;BME280;2965;42.640;23.370;2022-07-23T01:11:28;94807.44;;;19.54;nan
5879;BME280;2965;42.640;23.370;2022-07-23T01:13:54;94807.69;;;19.64;nan
5879;BME280;2965;42.640;23.370;2022-07-23T01:16:20;94811.38;;;19.63;nan
5879;BME280;2965;42.640;23.370;2022-07-23T01:18:45;94817.13;;;19.60;nan
5879;BME280;2965;42.640;23.370;2022-07-23T01:21:12;94800.03;;;19.56;nan
5879;BME280;2965;42.640;23.370;2022-07-23T01:23:41;94797.19;;;19.46;nan
5879;BME280;2965;42.640;23.370;2022-07-23T01:26:06;94796.72;;;19.49;nan
5879;BME280;2965;42.640;23.370;2022-07-23T01:28:31;94791.31;;;19.44;nan
5879;BME280;2965;42.640;23.370;2022-07-23T01:30:58;94796.63;;;19.44;nan
5879;BME280;2965;42.640;23.370;2022-07-23T01:33:23;94803.53;;;19.45;nan
5879;BME280;2965;42.640;23.370;2022-07-23T01:35:48;94800.28;;;19.42;nan
5879;BME280;2965;42.640;23.370;2022-07-23T01:38:14;94802.47;;;19.34;nan
5879;BME280;2965;42.640;23.370;2022-07-23T01:40:39;94789.91;;;19.29;nan
5879;BME280;2965;42.640;23.370;2022-07-23T01:43:05;94793.13;;;19.20;nan
5879;BME280;2965;42.640;23.370;2022-07-23T01:45:30;94799.25;;;19.08;nan
5879;BME280;2965;42.640;23.370;2022-07-23T01:47:56;94801.53;;;19.05;nan
5879;BME280;2965;42.640;23.370;2022-07-23T01:50:21;94804.41;;;19.03;nan
5879;BME280;2965;42.640;23.370;2022-07-23T01:52:46;94804.06;;;19.00;nan
5879;BME280;2965;42.640;23.370;2022-07-23T01:55:12;94800.38;;;19.01;nan
5879;BME280;2965;42.640;23.370;2022-07-23T01:57:37;94801.16;;;18.89;nan
5879;BME280;2965;42.640;23.370;2022-07-23T02:00:03;94804.50;;;18.85;nan
5879;BME280;2965;42.640;23.370;2022-07-23T02:02:29;94799.75;;;18.75;nan
5879;BME280;2965;42.640;23.370;2022-07-23T02:04:54;94809.59;;;18.68;nan
5879;BME280;2965;42.640;23.370;2022-07-23T02:07:20;94795.59;;;18.49;nan
5879;BME280;2965;42.640;23.370;2022-07-23T02:09:45;94799.19;;;18.55;nan
5879;BME280;2965;42.640;23.370;2022-07-23T02:12:11;94802.00;;;18.60;nan
5879;BME280;2965;42.640;23.370;2022-07-23T02:14:36;94808.09;;;18.60;nan
5879;BME280;2965;42.640;23.370;2022-07-23T02:17:02;94807.38;;;18.53;nan
5879;BME280;2965;42.640;23.370;2022-07-23T02:19:27;94801.44;;;18.39;nan
5879;BME280;2965;42.640;23.370;2022-07-23T02:21:53;94805.00;;;18.33;nan
5879;BME280;2965;42.640;23.370;2022-07-23T02:24:19;94800.78;;;18.44;nan
5879;BME280;2965;42.640;23.370;2022-07-23T02:26:45;94804.50;;;18.55;nan
5879;BME280;2965;42.640;23.370;2022-07-23T02:29:10;94802.78;;;18.60;nan
5879;BME280;2965;42.640;23.370;2022-07-23T02:31:37;94803.47;;;18.56;nan
5879;BME280;2965;42.640;23.370;2022-07-23T02:34:03;94803.47;;;18.56;nan
5879;BME280;2965;42.640;23.370;2022-07-23T02:36:28;94807.00;;;18.50;nan
5879;BME280;2965;42.640;23.370;2022-07-23T02:38:54;94800.03;;;18.55;nan
5879;BME280;2965;42.640;23.370;2022-07-23T02:41:20;94816.72;;;18.56;nan
5879;BME280;2965;42.640;23.370;2022-07-23T02:43:45;94807.38;;;18.53;nan
5879;BME280;2965;42.640;23.370;2022-07-23T02:46:11;94812.78;;;18.47;nan
5879;BME280;2965;42.640;23.370;2022-07-23T02:48:36;94817.59;;;18.50;nan
5879;BME280;2965;42.640;23.370;2022-07-23T02:51:02;94818.63;;;18.49;nan
5879;BME280;2965;42.640;23.370;2022-07-23T02:53:27;94814.81;;;18.45;nan
5879;BME280;2965;42.640;23.370;2022-07-23T02:55:52;94821.03;;;18.38;nan
5879;BME280;2965;42.640;23.370;2022-07-23T02:58:18;94821.91;;;18.32;nan
5879;BME280;2965;42.640;23.370;2022-07-23T03:00:43;94816.59;;;18.32;nan
5879;BME280;2965;42.640;23.370;2022-07-23T03:03:09;94820.28;;;18.31;nan
5879;BME280;2965;42.640;23.370;2022-07-23T03:05:34;94821.91;;;18.32;nan
5879;BME280;2965;42.640;23.370;2022-07-23T03:08:00;94834.00;;;18.28;nan
5879;BME280;2965;42.640;23.370;2022-07-23T03:10:26;94828.09;;;18.26;nan
5879;BME280;2965;42.640;23.370;2022-07-23T03:12:51;94830.88;;;18.31;nan
5879;BME280;2965;42.640;23.370;2022-07-23T03:15:17;94828.53;;;18.23;nan
5879;BME280;2965;42.640;23.370;2022-07-23T03:17:42;94835.91;;;18.21;nan
5879;BME280;2965;42.640;23.370;2022-07-23T03:20:08;94838.63;;;18.14;nan
5879;BME280;2965;42.640;23.370;2022-07-23T03:22:34;94838.41;;;18.16;nan
5879;BME280;2965;42.640;23.370;2022-07-23T03:24:59;94834.31;;;18.20;nan
5879;BME280;2965;42.640;23.370;2022-07-23T03:27:27;94834.38;;;18.13;nan
5879;BME280;2965;42.640;23.370;2022-07-23T03:29:54;94841.63;;;18.18;nan
5879;BME280;2965;42.640;23.370;2022-07-23T03:32:21;94843.63;;;18.23;nan
5879;BME280;2965;42.640;23.370;2022-07-23T03:34:47;94843.25;;;18.19;nan
5879;BME280;2965;42.640;23.370;2022-07-23T03:37:13;94843.72;;;18.16;nan
5879;BME280;2965;42.640;23.370;2022-07-23T03:39:38;94850.63;;;18.17;nan
5879;BME280;2965;42.640;23.370;2022-07-23T03:42:04;94848.63;;;18.12;nan
5879;BME280;2965;42.640;23.370;2022-07-23T03:44:30;94851.84;;;18.14;nan
5879;BME280;2965;42.640;23.370;2022-07-23T03:46:55;94850.25;;;18.13;nan
5879;BME280;2965;42.640;23.370;2022-07-23T03:49:21;94853.50;;;18.15;nan
5879;BME280;2965;42.640;23.370;2022-07-23T03:51:46;94853.66;;;18.02;nan
5879;BME280;2965;42.640;23.370;2022-07-23T03:54:12;94854.81;;;17.88;nan
5879;BME280;2965;42.640;23.370;2022-07-23T03:56:37;94859.09;;;17.89;nan
5879;BME280;2965;42.640;23.370;2022-07-23T03:59:02;94862.81;;;17.81;nan
5879;BME280;2965;42.640;23.370;2022-07-23T04:01:28;94856.72;;;17.81;nan
5879;BME280;2965;42.640;23.370;2022-07-23T04:03:53;94857.91;;;17.85;nan
5879;BME280;2965;42.640;23.370;2022-07-23T04:06:19;94849.31;;;17.89;nan
5879;BME280;2965;42.640;23.370;2022-07-23T04:08:44;94852.84;;;18.02;nan
5879;BME280;2965;42.640;23.370;2022-07-23T04:11:10;94848.25;;;18.09;nan
5879;BME280;2965;42.640;23.370;2022-07-23T04:13:35;94848.09;;;18.22;nan
5879;BME280;2965;42.640;23.370;2022-07-23T04:16:00;94858.97;;;18.32;nan
5879;BME280;2965;42.640;23.370;2022-07-23T04:18:26;94844.25;;;18.36;nan
5879;BME280;2965;42.640;23.370;2022-07-23T04:20:52;94843.50;;;18.48;nan
5879;BME280;2965;42.640;23.370;2022-07-23T04:23:17;94848.94;;;18.53;nan
5879;BME280;2965;42.640;23.370;2022-07-23T04:25:43;94857.75;;;18.65;nan
5879;BME280;2965;42.640;23.370;2022-07-23T04:28:08;94855.25;;;18.70;nan
5879;BME280;2965;42.640;23.370;2022-07-23T04:30:34;94863.34;;;18.75;nan
5879;BME280;2965;42.640;23.370;2022-07-23T04:32:59;94869.81;;;18.79;nan
5879;BME280;2965;42.640;23.370;2022-07-23T04:35:25;94860.94;;;18.85;nan
5879;BME280;2965;42.640;23.370;2022-07-23T04:37:50;94870.19;;;18.95;nan
5879;BME280;2965;42.640;23.370;2022-07-23T04:40:16;94871.94;;;19.01;nan
5879;BME280;2965;42.640;23.370;2022-07-23T04:42:41;94870.47;;;19.05;nan
5879;BME280;2965;42.640;23.370;2022-07-23T04:45:07;94869.66;;;19.16;nan
5879;BME280;2965;42.640;23.370;2022-07-23T04:47:32;94875.81;;;19.28;nan
5879;BME280;2965;42.640;23.370;2022-07-23T04:49:58;94872.94;;;19.41;nan
5879;BME280;2965;42.640;23.370;2022-07-23T04:52:23;94872.00;;;19.48;nan
5879;BME280;2965;42.640;23.370;2022-07-23T04:54:49;94872.84;;;19.60;nan
5879;BME280;2965;42.640;23.370;2022-07-23T04:57:15;94873.69;;;19.72;nan
5879;BME280;2965;42.640;23.370;2022-07-23T04:59:40;94883.59;;;19.88;nan
5879;BME280;2965;42.640;23.370;2022-07-23T05:02:06;94884.97;;;20.03;nan
5879;BME280;2965;42.640;23.370;2022-07-23T05:04:31;94883.56;;;20.12;nan
5879;BME280;2965;42.640;23.370;2022-07-23T05:06:57;94880.56;;;20.20;nan
5879;BME280;2965;42.640;23.370;2022-07-23T05:09:23;94882.50;;;20.25;nan
5879;BME280;2965;42.640;23.370;2022-07-23T05:11:49;94886.41;;;20.34;nan
5879;BME280;2965;42.640;23.370;2022-07-23T05:14:14;94887.41;;;20.45;nan
5879;BME280;2965;42.640;23.370;2022-07-23T05:16:40;94887.19;;;20.58;nan
5879;BME280;2965;42.640;23.370;2022-07-23T05:19:05;94884.50;;;20.70;nan
5879;BME280;2965;42.640;23.370;2022-07-23T05:21:31;94887.56;;;20.78;nan
5879;BME280;2965;42.640;23.370;2022-07-23T05:23:56;94882.44;;;20.88;nan
5879;BME280;2965;42.640;23.370;2022-07-23T05:26:21;94889.56;;;21.00;nan
5879;BME280;2965;42.640;23.370;2022-07-23T05:28:47;94891.84;;;21.08;nan
5879;BME280;2965;42.640;23.370;2022-07-23T05:31:12;94887.16;;;21.15;nan
5879;BME280;2965;42.640;23.370;2022-07-23T05:33:38;94893.63;;;21.19;nan
5879;BME280;2965;42.640;23.370;2022-07-23T05:36:04;94893.16;;;21.22;nan
5879;BME280;2965;42.640;23.370;2022-07-23T05:38:31;94896.00;;;21.32;nan
5879;BME280;2965;42.640;23.370;2022-07-23T05:40:57;94893.81;;;21.46;nan
5879;BME280;2965;42.640;23.370;2022-07-23T05:43:22;94900.06;;;21.52;nan
5879;BME280;2965;42.640;23.370;2022-07-23T05:45:48;94892.78;;;21.64;nan
5879;BME280;2965;42.640;23.370;2022-07-23T05:48:13;94887.06;;;21.55;nan
5879;BME280;2965;42.640;23.370;2022-07-23T05:50:39;94882.22;;;21.35;nan
5879;BME280;2965;42.640;23.370;2022-07-23T05:53:04;94887.53;;;21.35;nan
5879;BME280;2965;42.640;23.370;2022-07-23T05:55:29;94889.94;;;21.37;nan
5879;BME280;2965;42.640;23.370;2022-07-23T05:57:57;94895.59;;;21.40;nan
5879;BME280;2965;42.640;23.370;2022-07-23T06:00:23;94902.22;;;21.55;nan
5879;BME280;2965;42.640;23.370;2022-07-23T06:02:48;94896.25;;;21.64;nan
5879;BME280;2965;42.640;23.370;2022-07-23T06:05:14;94879.13;;;21.77;nan
5879;BME280;2965;42.640;23.370;2022-07-23T06:07:39;94885.25;;;21.78;nan
5879;BME280;2965;42.640;23.370;2022-07-23T06:10:05;94884.63;;;21.87;nan
5879;BME280;2965;42.640;23.370;2022-07-23T06:12:31;94887.50;;;22.03;nan
5879;BME280;2965;42.640;23.370;2022-07-23T06:14:56;94886.03;;;22.12;nan
5879;BME280;2965;42.640;23.370;2022-07-23T06:17:22;94872.56;;;22.19;nan
5879;BME280;2965;42.640;23.370;2022-07-23T06:19:47;94874.13;;;22.36;nan
5879;BME280;2965;42.640;23.370;2022-07-23T06:22:12;94878.28;;;22.49;nan
5879;BME280;2965;42.640;23.370;2022-07-23T06:24:38;94872.31;;;22.64;nan
5879;BME280;2965;42.640;23.370;2022-07-23T06:27:04;94884.69;;;22.75;nan
5879;BME280;2965;42.640;23.370;2022-07-23T06:29:30;94876.09;;;22.90;nan
5879;BME280;2965;42.640;23.370;2022-07-23T06:31:55;94873.56;;;23.05;nan
5879;BME280;2965;42.640;23.370;2022-07-23T06:34:20;94872.34;;;23.18;nan
5879;BME280;2965;42.640;23.370;2022-07-23T06:36:46;94875.66;;;23.30;nan
5879;BME280;2965;42.640;23.370;2022-07-23T06:39:11;94871.47;;;23.39;nan
5879;BME280;2965;42.640;23.370;2022-07-23T06:41:37;94866.47;;;23.48;nan
5879;BME280;2965;42.640;23.370;2022-07-23T06:44:02;94879.66;;;23.60;nan
5879;BME280;2965;42.640;23.370;2022-07-23T06:46:28;94881.22;;;23.56;nan
5879;BME280;2965;42.640;23.370;2022-07-23T06:48:53;94873.25;;;23.61;nan
5879;BME280;2965;42.640;23.370;2022-07-23T06:51:19;94867.47;;;23.69;nan
5879;BME280;2965;42.640;23.370;2022-07-23T06:53:44;94878.19;;;23.79;nan
5879;BME280;2965;42.640;23.370;2022-07-23T06:56:10;94868.16;;;23.97;nan
5879;BME280;2965;42.640;23.370;2022-07-23T06:58:35;94865.53;;;24.07;nan
5879;BME280;2965;42.640;23.370;2022-07-23T07:01:00;94868.84;;;24.24;nan
5879;BME280;2965;42.640;23.370;2022-07-23T07:03:26;94872.38;;;24.35;nan
5879;BME280;2965;42.640;23.370;2022-07-23T07:05:51;94864.38;;;24.35;nan
5879;BME280;2965;42.640;23.370;2022-07-23T07:08:18;94865.75;;;24.48;nan
5879;BME280;2965;42.640;23.370;2022-07-23T07:10:44;94862.09;;;24.64;nan
5879;BME280;2965;42.640;23.370;2022-07-23T07:13:09;94860.78;;;24.77;nan
5879;BME280;2965;42.640;23.370;2022-07-23T07:15:35;94856.81;;;24.84;nan
5879;BME280;2965;42.640;23.370;2022-07-23T07:18:00;94864.84;;;24.89;nan
5879;BME280;2965;42.640;23.370;2022-07-23T07:20:26;94849.06;;;24.98;nan
5879;BME280;2965;42.640;23.370;2022-07-23T07:22:51;94852.59;;;25.09;nan
5879;BME280;2965;42.640;23.370;2022-07-23T07:25:17;94848.88;;;25.20;nan
5879;BME280;2965;42.640;23.370;2022-07-23T07:27:42;94849.94;;;25.24;nan
5879;BME280;2965;42.640;23.370;2022-07-23T07:30:09;94851.00;;;25.33;nan
5879;BME280;2965;42.640;23.370;2022-07-23T07:32:35;94848.31;;;25.44;nan
5879;BME280;2965;42.640;23.370;2022-07-23T07:35:03;94841.91;;;25.55;nan
5879;BME280;2965;42.640;23.370;2022-07-23T07:37:28;94845.63;;;25.69;nan
5879;BME280;2965;42.640;23.370;2022-07-23T07:39:54;94837.63;;;25.79;nan
5879;BME280;2965;42.640;23.370;2022-07-23T07:42:20;94831.72;;;25.87;nan
5879;BME280;2965;42.640;23.370;2022-07-23T07:44:46;94836.50;;;26.01;nan
5879;BME280;2965;42.640;23.370;2022-07-23T07:47:11;94834.59;;;26.11;nan
5879;BME280;2965;42.640;23.370;2022-07-23T07:49:36;94837.78;;;26.24;nan
5879;BME280;2965;42.640;23.370;2022-07-23T07:52:02;94831.03;;;26.31;nan
5879;BME280;2965;42.640;23.370;2022-07-23T07:54:28;94850.06;;;26.40;nan
5879;BME280;2965;42.640;23.370;2022-07-23T07:56:54;94842.75;;;26.56;nan
5879;BME280;2965;42.640;23.370;2022-07-23T07:59:19;94835.50;;;26.61;nan
5879;BME280;2965;42.640;23.370;2022-07-23T08:01:44;94828.16;;;26.77;nan
5879;BME280;2965;42.640;23.370;2022-07-23T08:04:10;94830.56;;;26.84;nan
5879;BME280;2965;42.640;23.370;2022-07-23T08:06:36;94835.34;;;26.92;nan
5879;BME280;2965;42.640;23.370;2022-07-23T08:09:01;94826.47;;;26.97;nan
5879;BME280;2965;42.640;23.370;2022-07-23T08:11:26;94827.97;;;27.08;nan
5879;BME280;2965;42.640;23.370;2022-07-23T08:13:52;94819.38;;;27.16;nan
5879;BME280;2965;42.640;23.370;2022-07-23T08:16:18;94822.56;;;27.23;nan
5879;BME280;2965;42.640;23.370;2022-07-23T08:18:43;94829.47;;;27.29;nan
5879;BME280;2965;42.640;23.370;2022-07-23T08:21:08;94827.78;;;27.38;nan
5879;BME280;2965;42.640;23.370;2022-07-23T08:23:34;94826.91;;;27.48;nan
5879;BME280;2965;42.640;23.370;2022-07-23T08:25:59;94822.47;;;27.62;nan
5879;BME280;2965;42.640;23.370;2022-07-23T08:28:26;94818.88;;;27.77;nan
5879;BME280;2965;42.640;23.370;2022-07-23T08:30:51;94829.06;;;27.80;nan
5879;BME280;2965;42.640;23.370;2022-07-23T08:33:18;94821.41;;;27.92;nan
5879;BME280;2965;42.640;23.370;2022-07-23T08:35:46;94816.38;;;28.10;nan
5879;BME280;2965;42.640;23.370;2022-07-23T08:38:13;94819.72;;;28.26;nan
5879;BME280;2965;42.640;23.370;2022-07-23T08:40:42;94823.63;;;28.38;nan
5879;BME280;2965;42.640;23.370;2022-07-23T08:43:11;94818.84;;;28.54;nan
5879;BME280;2965;42.640;23.370;2022-07-23T08:45:39;94822.78;;;28.62;nan
5879;BME280;2965;42.640;23.370;2022-07-23T08:48:08;94821.50;;;28.78;nan
5879;BME280;2965;42.640;23.370;2022-07-23T08:50:35;94818.97;;;28.87;nan
5879;BME280;2965;42.640;23.370;2022-07-23T08:53:07;94813.91;;;29.04;nan
5879;BME280;2965;42.640;23.370;2022-07-23T08:55:33;94816.28;;;29.06;nan
5879;BME280;2965;42.640;23.370;2022-07-23T08:57:58;94813.88;;;29.23;nan
5879;BME280;2965;42.640;23.370;2022-07-23T09:00:23;94813.78;;;29.28;nan
5879;BME280;2965;42.640;23.370;2022-07-23T09:02:50;94816.53;;;29.42;nan
5879;BME280;2965;42.640;23.370;2022-07-23T09:05:17;94815.94;;;29.64;nan
5879;BME280;2965;42.640;23.370;2022-07-23T09:08:22;94812.94;;;29.79;nan
5879;BME280;2965;42.640;23.370;2022-07-23T09:10:58;94812.16;;;29.92;nan
5879;BME280;2965;42.640;23.370;2022-07-23T09:16:01;94803.22;;;30.11;nan
5879;BME280;2965;42.640;23.370;2022-07-23T09:18:37;94808.22;;;30.31;nan
5879;BME280;2965;42.640;23.370;2022-07-23T09:26:23;94802.63;;;30.55;nan
5879;BME280;2965;42.640;23.370;2022-07-23T09:31:20;94799.06;;;30.96;nan
5879;BME280;2965;42.640;23.370;2022-07-23T09:33:46;94789.31;;;31.09;nan
5879;BME280;2965;42.640;23.370;2022-07-23T09:36:12;94789.84;;;31.33;nan
5879;BME280;2965;42.640;23.370;2022-07-23T09:38:48;94791.06;;;31.50;nan
5879;BME280;2965;42.640;23.370;2022-07-23T09:41:14;94783.56;;;31.47;nan
5879;BME280;2965;42.640;23.370;2022-07-23T09:43:39;94787.22;;;31.73;nan
5879;BME280;2965;42.640;23.370;2022-07-23T09:46:22;94770.94;;;31.87;nan
5879;BME280;2965;42.640;23.370;2022-07-23T09:48:55;94777.38;;;32.08;nan
5879;BME280;2965;42.640;23.370;2022-07-23T09:51:24;94771.56;;;32.24;nan
5879;BME280;2965;42.640;23.370;2022-07-23T09:53:57;94778.94;;;32.40;nan
5879;BME280;2965;42.640;23.370;2022-07-23T09:56:23;94776.13;;;32.46;nan
5879;BME280;2965;42.640;23.370;2022-07-23T09:58:50;94775.22;;;32.76;nan
5879;BME280;2965;42.640;23.370;2022-07-23T10:01:17;94772.69;;;33.06;nan
5879;BME280;2965;42.640;23.370;2022-07-23T10:03:44;94767.88;;;33.37;nan
5879;BME280;2965;42.640;23.370;2022-07-23T10:06:12;94758.78;;;33.59;nan
5879;BME280;2965;42.640;23.370;2022-07-23T10:08:40;94763.00;;;33.86;nan
5879;BME280;2965;42.640;23.370;2022-07-23T10:11:06;94760.66;;;34.23;nan
5879;BME280;2965;42.640;23.370;2022-07-23T10:13:31;94758.13;;;34.48;nan
5879;BME280;2965;42.640;23.370;2022-07-23T10:16:16;94754.47;;;34.44;nan
5879;BME280;2965;42.640;23.370;2022-07-23T10:18:42;94753.25;;;34.32;nan
5879;BME280;2965;42.640;23.370;2022-07-23T10:21:08;94759.16;;;34.05;nan
5879;BME280;2965;42.640;23.370;2022-07-23T10:23:40;94754.75;;;34.21;nan
5879;BME280;2965;42.640;23.370;2022-07-23T10:26:24;94743.59;;;34.44;nan
5879;BME280;2965;42.640;23.370;2022-07-23T10:29:01;94741.88;;;34.69;nan
5879;BME280;2965;42.640;23.370;2022-07-23T10:37:23;94743.00;;;34.88;nan
5879;BME280;2965;42.640;23.370;2022-07-23T10:42:38;94734.53;;;34.90;nan
5879;BME280;2965;42.640;23.370;2022-07-23T10:47:48;94736.91;;;35.46;nan
5879;BME280;2965;42.640;23.370;2022-07-23T10:50:24;94725.91;;;35.75;nan
5879;BME280;2965;42.640;23.370;2022-07-23T10:57:56;94719.28;;;36.09;nan
5879;BME280;2965;42.640;23.370;2022-07-23T11:00:23;94715.97;;;35.92;nan
5879;BME280;2965;42.640;23.370;2022-07-23T11:02:51;94713.25;;;36.28;nan
5879;BME280;2965;42.640;23.370;2022-07-23T11:05:22;94705.56;;;36.18;nan
5879;BME280;2965;42.640;23.370;2022-07-23T11:13:31;94697.50;;;36.99;nan
5879;BME280;2965;42.640;23.370;2022-07-23T11:31:58;94688.69;;;37.61;nan
5879;BME280;2965;42.640;23.370;2022-07-23T11:34:32;94686.38;;;37.48;nan
5879;BME280;2965;42.640;23.370;2022-07-23T11:37:03;94686.66;;;37.74;nan
5879;BME280;2965;42.640;23.370;2022-07-23T11:39:29;94688.41;;;37.51;nan
5879;BME280;2965;42.640;23.370;2022-07-23T11:41:56;94676.13;;;37.89;nan
5879;BME280;2965;42.640;23.370;2022-07-23T11:44:28;94678.06;;;38.04;nan
5879;BME280;2965;42.640;23.370;2022-07-23T11:47:03;94669.75;;;38.16;nan
5879;BME280;2965;42.640;23.370;2022-07-23T11:49:28;94663.84;;;38.14;nan
5879;BME280;2965;42.640;23.370;2022-07-23T11:52:07;94663.25;;;38.05;nan
5879;BME280;2965;42.640;23.370;2022-07-23T11:54:35;94672.59;;;38.04;nan
5879;BME280;2965;42.640;23.370;2022-07-23T11:57:01;94672.22;;;37.90;nan
5879;BME280;2965;42.640;23.370;2022-07-23T11:59:30;94664.13;;;38.09;nan
5879;BME280;2965;42.640;23.370;2022-07-23T12:02:00;94665.38;;;38.47;nan
5879;BME280;2965;42.640;23.370;2022-07-23T12:04:46;94659.16;;;38.30;nan
5879;BME280;2965;42.640;23.370;2022-07-23T12:07:37;94663.22;;;38.91;nan
5879;BME280;2965;42.640;23.370;2022-07-23T12:12:43;94659.50;;;39.42;nan
5879;BME280;2965;42.640;23.370;2022-07-23T12:15:11;94646.09;;;39.56;nan
5879;BME280;2965;42.640;23.370;2022-07-23T12:17:39;94652.22;;;39.49;nan
5879;BME280;2965;42.640;23.370;2022-07-23T12:20:07;94650.31;;;39.30;nan
5879;BME280;2965;42.640;23.370;2022-07-23T12:22:44;94644.59;;;38.77;nan
5879;BME280;2965;42.640;23.370;2022-07-23T12:25:12;94644.56;;;38.58;nan
5879;BME280;2965;42.640;23.370;2022-07-23T12:27:38;94643.00;;;38.76;nan
5879;BME280;2965;42.640;23.370;2022-07-23T12:30:21;94638.22;;;39.31;nan
5879;BME280;2965;42.640;23.370;2022-07-23T12:32:49;94637.06;;;39.13;nan
5879;BME280;2965;42.640;23.370;2022-07-23T12:35:16;94632.56;;;39.44;nan
5879;BME280;2965;42.640;23.370;2022-07-23T12:37:43;94629.34;;;39.84;nan
5879;BME280;2965;42.640;23.370;2022-07-23T12:40:29;94627.56;;;40.18;nan
5879;BME280;2965;42.640;23.370;2022-07-23T12:45:24;94640.09;;;40.76;nan
5879;BME280;2965;42.640;23.370;2022-07-23T12:48:00;94630.84;;;40.57;nan
5879;BME280;2965;42.640;23.370;2022-07-23T12:53:21;94620.84;;;40.12;nan
5879;BME280;2965;42.640;23.370;2022-07-23T12:55:48;94611.84;;;40.15;nan
5879;BME280;2965;42.640;23.370;2022-07-23T12:58:19;94619.44;;;39.99;nan
5879;BME280;2965;42.640;23.370;2022-07-23T13:05:48;94614.56;;;39.89;nan
5879;BME280;2965;42.640;23.370;2022-07-23T13:08:13;94614.47;;;39.58;nan
5879;BME280;2965;42.640;23.370;2022-07-23T13:10:39;94608.72;;;40.13;nan
5879;BME280;2965;42.640;23.370;2022-07-23T13:13:09;94620.69;;;40.58;nan
5879;BME280;2965;42.640;23.370;2022-07-23T13:15:35;94616.22;;;40.76;nan
5879;BME280;2965;42.640;23.370;2022-07-23T13:18:00;94615.19;;;40.88;nan
5879;BME280;2965;42.640;23.370;2022-07-23T13:20:26;94619.63;;;40.96;nan
5879;BME280;2965;42.640;23.370;2022-07-23T13:22:51;94609.75;;;40.92;nan
5879;BME280;2965;42.640;23.370;2022-07-23T13:25:17;94618.16;;;40.76;nan
5879;BME280;2965;42.640;23.370;2022-07-23T13:27:42;94612.72;;;40.79;nan
5879;BME280;2965;42.640;23.370;2022-07-23T13:30:08;94605.81;;;40.93;nan
5879;BME280;2965;42.640;23.370;2022-07-23T13:32:36;94612.41;;;41.18;nan
5879;BME280;2965;42.640;23.370;2022-07-23T13:35:01;94608.50;;;41.19;nan
5879;BME280;2965;42.640;23.370;2022-07-23T13:37:27;94611.13;;;41.46;nan
5879;BME280;2965;42.640;23.370;2022-07-23T13:39:53;94611.44;;;41.81;nan
5879;BME280;2965;42.640;23.370;2022-07-23T13:42:18;94604.25;;;41.66;nan
5879;BME280;2965;42.640;23.370;2022-07-23T13:44:44;94597.91;;;41.58;nan
5879;BME280;2965;42.640;23.370;2022-07-23T13:47:09;94608.03;;;41.51;nan
5879;BME280;2965;42.640;23.370;2022-07-23T13:49:34;94600.38;;;41.74;nan
5879;BME280;2965;42.640;23.370;2022-07-23T13:52:00;94600.06;;;41.39;nan
5879;BME280;2965;42.640;23.370;2022-07-23T13:54:25;94587.97;;;41.06;nan
5879;BME280;2965;42.640;23.370;2022-07-23T13:56:51;94603.66;;;41.05;nan
5879;BME280;2965;42.640;23.370;2022-07-23T13:59:17;94593.47;;;41.47;nan
5879;BME280;2965;42.640;23.370;2022-07-23T14:01:43;94587.41;;;41.30;nan
5879;BME280;2965;42.640;23.370;2022-07-23T14:04:09;94586.13;;;41.58;nan
5879;BME280;2965;42.640;23.370;2022-07-23T14:06:34;94582.59;;;42.09;nan
5879;BME280;2965;42.640;23.370;2022-07-23T14:09:00;94578.81;;;42.24;nan
5879;BME280;2965;42.640;23.370;2022-07-23T14:11:25;94590.28;;;41.86;nan
5879;BME280;2965;42.640;23.370;2022-07-23T14:13:51;94588.66;;;41.37;nan
5879;BME280;2965;42.640;23.370;2022-07-23T14:16:16;94583.19;;;40.35;nan
5879;BME280;2965;42.640;23.370;2022-07-23T14:18:41;94587.44;;;40.29;nan
5879;BME280;2965;42.640;23.370;2022-07-23T14:21:07;94585.63;;;40.14;nan
5879;BME280;2965;42.640;23.370;2022-07-23T14:23:32;94580.16;;;40.14;nan
5879;BME280;2965;42.640;23.370;2022-07-23T14:25:58;94581.34;;;40.13;nan
5879;BME280;2965;42.640;23.370;2022-07-23T14:28:24;94575.00;;;40.09;nan
5879;BME280;2965;42.640;23.370;2022-07-23T14:30:50;94584.72;;;40.33;nan